Time;durP1;ratioP1;P1;durP2;ratioP2;P2;SDS_P1;SDS_P2;PMS_P1;PMS_P2;Temp;Humidity;BMP_temperature;BMP_pressure;BME280_temperature;BME280_humidity;BME280_pressure;Samples;Min_cycle;Max_cycle;Signal;HPM_P1;HPM_P2
2023/11/23 00:01:54;;;;;;;5.22;3.30;;;;;;;-0.15;100.00;99226.66;6102722;19;20002;-73
2023/11/23 00:03:54;;;;;;;5.90;3.20;;;;;;;-0.16;100.00;99229.69;6103402;19;20387;-73
2023/11/23 00:05:54;;;;;;;5.10;3.28;;;;;;;-0.20;100.00;99221.28;6102726;19;20325;-73
2023/11/23 00:07:55;;;;;;;4.88;2.85;;;;;;;-0.13;100.00;99223.66;6101312;19;20027;-73
2023/11/23 00:09:55;;;;;;;4.93;3.35;;;;;;;-0.16;100.00;99235.13;6100949;19;19999;-73
2023/11/23 00:11:56;;;;;;;6.28;3.53;;;;;;;-0.22;100.00;99222.66;6102887;19;20007;-73
2023/11/23 00:13:56;;;;;;;6.22;3.35;;;;;;;-0.24;100.00;99216.72;6102181;19;20006;-73
2023/11/23 00:15:56;;;;;;;5.00;2.80;;;;;;;-0.23;100.00;99218.34;6103312;19;19998;-73
2023/11/23 00:17:56;;;;;;;4.75;3.15;;;;;;;-0.22;100.00;99231.63;6100156;19;20551;-73
2023/11/23 00:19:57;;;;;;;7.15;3.20;;;;;;;-0.26;100.00;99227.03;6103100;19;20456;-73
2023/11/23 00:21:57;;;;;;;6.68;3.05;;;;;;;-0.25;100.00;99228.66;6103492;19;20006;-73
2023/11/23 00:23:58;;;;;;;5.30;3.17;;;;;;;-0.12;100.00;99230.72;6101624;19;20007;-73
2023/11/23 00:25:58;;;;;;;6.00;3.60;;;;;;;-0.12;100.00;99228.78;6101810;19;20087;-73
2023/11/23 00:27:58;;;;;;;4.28;2.90;;;;;;;-0.14;100.00;99225.56;6101627;19;20304;-73
2023/11/23 00:29:59;;;;;;;6.75;2.92;;;;;;;-0.08;100.00;99239.94;6099899;19;20111;-73
2023/11/23 00:31:59;;;;;;;4.20;3.10;;;;;;;-0.12;100.00;99230.72;6101524;19;20015;-73
2023/11/23 00:33:59;;;;;;;6.35;3.33;;;;;;;-0.15;100.00;99220.41;6102025;19;20504;-73
2023/11/23 00:36:02;;;;;;;5.13;3.20;;;;;;;-0.22;100.00;99207.16;6101422;19;20565;-73
2023/11/23 00:38:03;;;;;;;4.10;3.10;;;;;;;-0.24;100.00;99217.53;6100730;19;20011;-73
2023/11/23 00:40:05;;;;;;;5.20;3.25;;;;;;;-0.26;100.00;99222.41;6101432;19;20014;-73
2023/11/23 00:42:06;;;;;;;6.72;3.53;;;;;;;-0.29;100.00;99226.53;6102129;19;20011;-73
2023/11/23 00:44:06;;;;;;;4.88;3.13;;;;;;;-0.23;100.00;99230.03;6102342;19;20420;-73
2023/11/23 00:46:07;;;;;;;5.25;3.40;;;;;;;-0.18;100.00;99219.06;6101725;19;20010;-73
2023/11/23 00:48:07;;;;;;;6.40;3.30;;;;;;;-0.16;100.00;99206.00;6099392;19;20006;-73
2023/11/23 00:50:08;;;;;;;4.80;2.75;;;;;;;-0.06;100.00;99207.78;6102505;19;20007;-73
2023/11/23 00:52:09;;;;;;;6.10;3.25;;;;;;;-0.07;100.00;99201.53;6101651;19;20006;-73
2023/11/23 00:54:10;;;;;;;5.28;2.80;;;;;;;-0.11;100.00;99188.81;6100293;19;20417;-73
2023/11/23 00:56:10;;;;;;;4.80;3.17;;;;;;;-0.13;100.00;99189.09;6101751;19;20011;-73
2023/11/23 00:58:11;;;;;;;4.80;3.00;;;;;;;-0.12;100.00;99209.75;6099875;19;20483;-73
2023/11/23 01:00:12;;;;;;;6.10;3.47;;;;;;;-0.08;100.00;99207.28;6101288;19;20007;-73
2023/11/23 01:02:12;;;;;;;5.80;2.80;;;;;;;-0.05;100.00;99202.06;6102081;19;20032;-73
2023/11/23 01:04:13;;;;;;;5.13;2.97;;;;;;;-0.05;100.00;99196.63;6100750;19;20009;-73
2023/11/23 01:06:13;;;;;;;5.15;2.80;;;;;;;-0.10;100.00;99199.38;6101554;19;20257;-73
2023/11/23 01:08:14;;;;;;;5.40;2.78;;;;;;;-0.11;100.00;99205.94;6096681;19;20011;-73
2023/11/23 01:10:15;;;;;;;4.82;2.97;;;;;;;-0.11;100.00;99210.56;6102285;19;20030;-73
2023/11/23 01:12:16;;;;;;;4.28;2.72;;;;;;;-0.15;100.00;99207.63;6101910;19;20488;-73
2023/11/23 01:14:16;;;;;;;3.97;2.58;;;;;;;-0.12;100.00;99204.31;6101039;19;20765;-73
2023/11/23 01:16:16;;;;;;;4.25;2.60;;;;;;;-0.10;100.00;99193.94;6100835;19;20011;-73
2023/11/23 01:18:17;;;;;;;4.93;2.80;;;;;;;-0.12;100.00;99192.63;6099208;19;20335;-73
2023/11/23 01:20:19;;;;;;;5.03;3.00;;;;;;;-0.10;100.00;99180.34;6101472;19;20013;-73
2023/11/23 01:22:19;;;;;;;3.78;2.65;;;;;;;-0.07;100.00;99174.34;6100759;19;20349;-73
2023/11/23 01:24:19;;;;;;;4.68;2.58;;;;;;;-0.10;100.00;99155.06;6100599;19;20007;-73
2023/11/23 01:26:20;;;;;;;8.40;2.80;;;;;;;-0.09;100.00;99151.22;6099432;19;20458;-73
2023/11/23 01:28:20;;;;;;;3.90;2.60;;;;;;;0.09;100.00;99157.81;6088174;19;20009;-73
2023/11/23 01:30:20;;;;;;;6.00;2.65;;;;;;;0.10;100.00;99154.81;6100236;19;20426;-74
2023/11/23 01:32:21;;;;;;;4.45;2.58;;;;;;;0.12;100.00;99154.50;6100029;19;20014;-73
2023/11/23 01:34:21;;;;;;;3.47;2.42;;;;;;;0.07;100.00;99149.13;6098586;19;20006;-73
2023/11/23 01:36:21;;;;;;;5.25;3.22;;;;;;;0.10;100.00;99143.13;6099153;19;20454;-73
2023/11/23 01:38:22;;;;;;;5.82;2.95;;;;;;;0.09;100.00;99144.22;6099082;19;20471;-73
2023/11/23 01:40:22;;;;;;;6.63;3.10;;;;;;;0.17;100.00;99138.94;6100775;19;20062;-73
2023/11/23 01:42:22;;;;;;;5.05;2.85;;;;;;;0.27;100.00;99143.41;6101007;19;20485;-73
2023/11/23 01:44:23;;;;;;;3.95;2.38;;;;;;;0.31;100.00;99151.78;6101163;19;20012;-73
2023/11/23 01:46:23;;;;;;;4.03;2.72;;;;;;;0.34;100.00;99149.31;6099883;19;20286;-74
2023/11/23 01:48:24;;;;;;;5.13;2.83;;;;;;;0.35;100.00;99141.94;6098675;19;19999;-73
2023/11/23 01:50:25;;;;;;;4.07;2.42;;;;;;;0.42;100.00;99143.19;6101364;19;20011;-73
2023/11/23 01:52:26;;;;;;;4.57;3.03;;;;;;;0.41;100.00;99141.56;6100048;19;20010;-74
2023/11/23 01:54:28;;;;;;;4.50;2.92;;;;;;;0.41;100.00;99147.00;6100283;19;20010;-74
2023/11/23 01:56:29;;;;;;;4.53;2.70;;;;;;;0.43;100.00;99149.44;6099705;19;20029;-74
2023/11/23 01:58:30;;;;;;;4.93;3.33;;;;;;;0.45;100.00;99139.06;6099397;19;20075;-74
2023/11/23 02:00:31;;;;;;;5.32;2.90;;;;;;;0.31;100.00;99141.72;6100810;19;20003;-74
2023/11/23 02:02:31;;;;;;;6.47;3.03;;;;;;;0.25;100.00;99145.63;6100157;19;20029;-74
2023/11/23 02:04:32;;;;;;;6.07;2.78;;;;;;;0.22;100.00;99129.88;6100135;19;20609;-74
2023/11/23 02:06:32;;;;;;;4.85;2.70;;;;;;;0.18;100.00;99137.81;6100755;19;20432;-74
2023/11/23 02:08:34;;;;;;;6.05;2.20;;;;;;;0.16;100.00;99136.47;6098538;19;20085;-74
2023/11/23 02:10:34;;;;;;;5.00;2.67;;;;;;;0.15;100.00;99148.47;6100029;19;20006;-74
2023/11/23 02:12:35;;;;;;;6.65;3.08;;;;;;;0.13;100.00;99135.16;6101077;19;20034;-74
2023/11/23 02:14:36;;;;;;;4.53;2.75;;;;;;;0.16;100.00;99150.09;6099891;19;20018;-74
2023/11/23 02:16:37;;;;;;;6.07;2.90;;;;;;;0.20;100.00;99151.13;6101554;19;20006;-74
2023/11/23 02:18:38;;;;;;;6.20;2.80;;;;;;;0.19;100.00;99150.31;6105327;19;20238;-74
2023/11/23 02:20:39;;;;;;;5.50;2.90;;;;;;;0.22;100.00;99143.47;6106089;19;20325;-74
2023/11/23 02:22:39;;;;;;;3.53;2.65;;;;;;;0.26;100.00;99142.59;6106396;19;20011;-74
2023/11/23 02:24:41;;;;;;;4.18;2.42;;;;;;;0.27;100.00;99137.97;6105825;19;19998;-74
2023/11/23 02:26:42;;;;;;;4.00;2.50;;;;;;;0.30;100.00;99140.09;6103452;19;20007;-74
2023/11/23 02:28:42;;;;;;;5.70;2.90;;;;;;;0.34;100.00;99143.06;6095930;19;20559;-74
2023/11/23 02:30:42;;;;;;;4.43;2.80;;;;;;;0.40;100.00;99136.41;6097441;19;20018;-74
2023/11/23 02:32:45;;;;;;;5.90;3.50;;;;;;;0.36;100.00;99128.03;6097878;19;20215;-74
2023/11/23 02:34:46;;;;;;;5.03;3.00;;;;;;;0.41;100.00;99135.31;6095910;19;20102;-74
2023/11/23 02:36:47;;;;;;;4.80;2.85;;;;;;;0.38;100.00;99125.00;6095620;19;20007;-74
2023/11/23 02:38:47;;;;;;;4.88;2.88;;;;;;;0.43;100.00;99120.31;6095907;19;20392;-74
2023/11/23 02:40:47;;;;;;;4.03;2.88;;;;;;;0.39;100.00;99116.53;6097582;19;20481;-74
2023/11/23 02:42:48;;;;;;;6.68;3.05;;;;;;;0.43;100.00;99108.63;6097071;19;20038;-73
2023/11/23 02:44:48;;;;;;;3.85;2.67;;;;;;;0.47;100.00;99102.25;6095972;19;20412;-73
2023/11/23 02:46:48;;;;;;;4.93;3.20;;;;;;;0.50;100.00;99090.00;6095512;19;20448;-74
2023/11/23 02:48:49;;;;;;;6.65;2.80;;;;;;;0.45;100.00;99095.50;6097472;19;20052;-73
2023/11/23 02:50:50;;;;;;;6.28;2.97;;;;;;;0.46;100.00;99087.03;6095470;19;20010;-73
2023/11/23 02:52:52;;;;;;;4.90;2.58;;;;;;;0.54;100.00;99085.56;6096165;19;20013;-74
2023/11/23 02:54:52;;;;;;;4.57;2.60;;;;;;;0.50;100.00;99090.78;6097272;19;20401;-73
2023/11/23 02:56:52;;;;;;;4.93;3.00;;;;;;;0.46;100.00;99078.88;6094532;19;20401;-74
2023/11/23 02:58:56;;;;;;;7.50;3.20;;;;;;;0.51;100.00;99089.69;6096620;19;20006;-73
2023/11/23 03:00:56;;;;;;;5.10;2.83;;;;;;;0.51;100.00;99086.97;6096253;19;20007;-73
2023/11/23 03:02:57;;;;;;;5.88;2.55;;;;;;;0.52;100.00;99085.06;6096526;19;20002;-73
2023/11/23 03:04:58;;;;;;;9.05;3.08;;;;;;;0.55;100.00;99073.56;6095632;19;20010;-73
2023/11/23 03:06:58;;;;;;;4.65;2.90;;;;;;;0.68;100.00;99069.28;6095106;19;20011;-73
2023/11/23 03:08:59;;;;;;;5.60;2.80;;;;;;;0.75;100.00;99072.41;6096439;19;20003;-73
2023/11/23 03:10:59;;;;;;;4.15;2.50;;;;;;;0.76;100.00;99077.56;6096675;19;20026;-73
2023/11/23 03:13:00;;;;;;;4.20;3.13;;;;;;;0.86;100.00;99070.31;6096030;19;20005;-73
2023/11/23 03:15:02;;;;;;;4.70;2.80;;;;;;;0.90;100.00;99061.22;6096183;19;20006;-73
2023/11/23 03:17:03;;;;;;;4.35;2.45;;;;;;;0.94;100.00;99058.72;6094928;19;20705;-73
2023/11/23 03:19:03;;;;;;;4.85;2.97;;;;;;;0.93;100.00;99047.03;6095442;19;20011;-73
2023/11/23 03:21:04;;;;;;;5.65;3.05;;;;;;;0.95;100.00;99039.34;6095446;19;20009;-73
2023/11/23 03:23:05;;;;;;;4.53;3.10;;;;;;;1.01;100.00;99038.16;6095660;19;20250;-73
2023/11/23 03:25:05;;;;;;;4.82;2.80;;;;;;;0.97;100.00;99039.84;6096042;19;20007;-73
2023/11/23 03:27:09;;;;;;;4.22;2.70;;;;;;;0.96;100.00;99043.69;6090012;19;19998;-73
2023/11/23 03:29:09;;;;;;;5.10;2.88;;;;;;;0.98;100.00;99035.19;6103464;19;20462;-73
2023/11/23 03:31:09;;;;;;;4.72;2.65;;;;;;;1.01;100.00;99038.16;6104786;19;20007;-73
2023/11/23 03:33:10;;;;;;;3.97;2.28;;;;;;;1.05;100.00;99027.44;6103259;19;20318;-73
2023/11/23 03:35:10;;;;;;;5.88;3.00;;;;;;;1.06;100.00;99021.69;6104045;19;20010;-73
2023/11/23 03:37:11;;;;;;;4.57;2.67;;;;;;;1.16;100.00;99034.31;6102559;19;20529;-73
2023/11/23 03:39:12;;;;;;;4.72;2.95;;;;;;;1.16;100.00;99033.50;6103787;19;20062;-73
2023/11/23 03:41:12;;;;;;;4.90;2.85;;;;;;;1.24;100.00;99024.59;6103883;19;20003;-73
2023/11/23 03:43:12;;;;;;;8.10;3.58;;;;;;;1.28;100.00;99022.91;6103600;19;20009;-73
2023/11/23 03:45:13;;;;;;;6.82;3.50;;;;;;;1.32;100.00;99018.44;6103811;19;20003;-73
2023/11/23 03:47:13;;;;;;;4.95;2.97;;;;;;;1.32;100.00;99038.34;6102796;19;20003;-73
2023/11/23 03:49:13;;;;;;;6.93;3.30;;;;;;;1.43;100.00;99032.69;6101581;19;20003;-74
2023/11/23 03:51:14;;;;;;;4.13;2.85;;;;;;;1.43;100.00;99028.06;6103435;19;19998;-73
2023/11/23 03:53:14;;;;;;;4.53;2.83;;;;;;;1.38;100.00;99028.16;6100749;19;20010;-74
2023/11/23 03:55:15;;;;;;;8.10;2.97;;;;;;;1.37;100.00;99029.25;6103284;19;20010;-73
2023/11/23 03:57:15;;;;;;;6.38;3.20;;;;;;;1.47;100.00;99036.41;6103112;19;20003;-73
2023/11/23 03:59:15;;;;;;;7.07;3.63;;;;;;;1.43;100.00;99027.25;6102843;19;20454;-73
2023/11/23 04:01:17;;;;;;;6.25;3.65;;;;;;;1.36;100.00;99025.72;6102663;19;20033;-74
2023/11/23 04:03:18;;;;;;;7.55;3.08;;;;;;;1.33;100.00;99031.81;6102177;19;20014;-74
2023/11/23 04:05:18;;;;;;;6.57;3.78;;;;;;;1.34;100.00;99027.97;6103279;19;20353;-73
2023/11/23 04:07:19;;;;;;;7.43;3.97;;;;;;;1.30;100.00;99026.13;6101466;19;20409;-74
2023/11/23 04:09:19;;;;;;;6.28;3.55;;;;;;;1.32;100.00;99029.34;6102503;19;20015;-74
2023/11/23 04:11:19;;;;;;;6.90;3.63;;;;;;;1.36;100.00;99028.47;6102267;19;20016;-74
2023/11/23 04:13:21;;;;;;;4.80;3.60;;;;;;;1.43;100.00;99032.69;6100672;19;20006;-73
2023/11/23 04:15:21;;;;;;;5.60;3.17;;;;;;;1.36;100.00;99024.94;6103314;19;20007;-74
2023/11/23 04:17:22;;;;;;;7.70;4.45;;;;;;;1.40;100.00;99045.81;6100548;19;20248;-74
2023/11/23 04:19:22;;;;;;;8.32;4.15;;;;;;;1.39;100.00;99035.22;6103720;19;20011;-74
2023/11/23 04:21:22;;;;;;;6.25;3.92;;;;;;;1.40;100.00;99042.28;6102629;19;20014;-74
2023/11/23 04:23:23;;;;;;;5.32;3.85;;;;;;;1.42;100.00;99039.28;6102804;19;20366;-74
2023/11/23 04:25:23;;;;;;;6.65;3.50;;;;;;;1.46;100.00;99038.34;6100254;19;20392;-74
2023/11/23 04:27:24;;;;;;;9.23;4.20;;;;;;;1.43;100.00;99028.06;6100192;19;20018;-74
2023/11/23 04:29:24;;;;;;;5.53;3.42;;;;;;;1.42;100.00;99031.91;6102551;19;20007;-74
2023/11/23 04:31:27;;;;;;;6.40;3.78;;;;;;;1.43;100.00;99028.06;6101818;19;20006;-74
2023/11/23 04:33:28;;;;;;;6.82;4.10;;;;;;;1.52;100.00;99028.16;6102125;19;20076;-74
2023/11/23 04:35:28;;;;;;;7.82;3.85;;;;;;;1.56;100.00;99029.94;6100950;19;20007;-74
2023/11/23 04:37:28;;;;;;;5.82;3.65;;;;;;;1.64;100.00;99015.59;6100236;19;20011;-74
2023/11/23 04:39:29;;;;;;;5.68;3.83;;;;;;;1.68;100.00;99005.69;6099939;19;20036;-74
2023/11/23 04:41:29;;;;;;;7.65;3.75;;;;;;;1.64;100.00;99017.50;6102616;19;20002;-74
2023/11/23 04:43:30;;;;;;;7.50;3.55;;;;;;;1.66;100.00;99018.03;6100858;19;20467;-74
2023/11/23 04:45:30;;;;;;;8.55;4.13;;;;;;;1.62;100.00;99012.38;6101989;19;20009;-74
2023/11/23 04:47:30;;;;;;;9.95;4.38;;;;;;;1.66;100.00;99007.91;6099968;19;20019;-74
2023/11/23 04:49:32;;;;;;;7.38;4.65;;;;;;;1.65;100.00;99002.75;6101258;19;20030;-74
2023/11/23 04:51:32;;;;;;;9.00;4.72;;;;;;;1.64;100.00;99001.94;6101971;19;20055;-74
2023/11/23 04:53:33;;;;;;;5.90;3.95;;;;;;;1.62;100.00;99004.19;6101031;19;20442;-74
2023/11/23 04:55:33;;;;;;;8.10;4.43;;;;;;;1.71;100.00;99009.72;6100293;19;20234;-74
2023/11/23 04:57:33;;;;;;;7.82;4.47;;;;;;;1.69;100.00;99003.75;6099862;19;20010;-74
2023/11/23 04:59:34;;;;;;;8.02;4.43;;;;;;;1.66;100.00;99009.84;6102166;19;20010;-74
2023/11/23 05:01:34;;;;;;;9.88;4.80;;;;;;;1.61;100.00;99013.47;6101336;19;20014;-74
2023/11/23 05:03:34;;;;;;;7.53;4.47;;;;;;;1.58;100.00;99002.38;6100964;19;20014;-74
2023/11/23 05:05:35;;;;;;;7.28;4.22;;;;;;;1.59;100.00;99004.00;6101377;19;20014;-74
2023/11/23 05:07:35;;;;;;;7.20;4.15;;;;;;;1.64;100.00;98996.50;6096723;19;20332;-74
2023/11/23 05:09:36;;;;;;;8.55;4.13;;;;;;;1.61;100.00;98990.84;6101264;19;20010;-74
2023/11/23 05:11:36;;;;;;;7.43;4.00;;;;;;;1.61;100.00;98986.19;6102401;19;20010;-74
2023/11/23 05:13:36;;;;;;;6.75;4.07;;;;;;;1.61;100.00;98988.94;6100325;19;20482;-74
2023/11/23 05:15:37;;;;;;;6.63;4.15;;;;;;;1.59;100.00;98987.63;6101209;19;20015;-74
2023/11/23 05:17:37;;;;;;;8.63;4.13;;;;;;;1.62;100.00;98987.00;6100075;19;20017;-74
2023/11/23 05:19:37;;;;;;;6.13;3.90;;;;;;;1.66;100.00;98982.56;6101354;19;20066;-74
2023/11/23 05:21:38;;;;;;;7.50;4.18;;;;;;;1.69;100.00;98990.13;6101736;19;20013;-74
2023/11/23 05:23:38;;;;;;;7.03;3.80;;;;;;;1.65;100.00;98989.91;6099971;19;20010;-74
2023/11/23 05:25:38;;;;;;;6.45;3.70;;;;;;;1.65;100.00;98986.38;6101355;19;20070;-74
2023/11/23 05:27:39;;;;;;;7.75;4.30;;;;;;;1.68;100.00;98980.34;6097192;19;20011;-74
2023/11/23 05:29:39;;;;;;;6.85;3.85;;;;;;;1.71;100.00;98970.72;6099527;19;20011;-74
2023/11/23 05:31:42;;;;;;;7.13;3.88;;;;;;;1.69;100.00;98974.56;6101530;19;20009;-74
2023/11/23 05:33:42;;;;;;;7.57;4.32;;;;;;;1.69;100.00;98988.19;6100228;19;20078;-74
2023/11/23 05:35:43;;;;;;;5.25;3.72;;;;;;;1.65;100.00;98975.47;6100536;19;21311;-74
2023/11/23 05:37:43;;;;;;;5.30;3.08;;;;;;;1.63;100.00;98975.78;6098288;19;20557;-74
2023/11/23 05:39:43;;;;;;;6.90;3.70;;;;;;;1.65;100.00;98973.56;6101285;19;20089;-74
2023/11/23 05:41:44;;;;;;;5.15;3.03;;;;;;;1.68;100.00;98985.78;6097133;19;20623;-74
2023/11/23 05:43:44;;;;;;;5.93;3.60;;;;;;;1.66;100.00;98982.56;6094005;19;20246;-74
2023/11/23 05:45:44;;;;;;;4.65;3.17;;;;;;;1.74;100.00;98981.84;6100903;19;20014;-74
2023/11/23 05:47:46;;;;;;;6.45;3.50;;;;;;;1.77;100.00;98986.66;6093307;19;20003;-74
2023/11/23 05:49:46;;;;;;;5.15;3.33;;;;;;;1.77;100.00;98994.84;6093057;19;20011;-74
2023/11/23 05:51:50;;;;;;;7.82;3.53;;;;;;;1.86;100.00;98986.75;6100771;19;20552;-74
2023/11/23 05:53:50;;;;;;;5.72;3.47;;;;;;;1.83;100.00;98990.09;6096687;19;20485;-74
2023/11/23 05:55:51;;;;;;;5.55;3.55;;;;;;;1.77;100.00;98986.66;6095782;19;20010;-74
2023/11/23 05:57:51;;;;;;;5.32;2.88;;;;;;;1.79;100.00;98998.06;6098447;19;20229;-74
2023/11/23 05:59:52;;;;;;;5.50;3.17;;;;;;;1.79;100.00;99003.53;6096568;19;20014;-74
2023/11/23 06:01:52;;;;;;;5.38;3.33;;;;;;;1.80;100.00;99001.59;6095038;19;19998;-74
2023/11/23 06:03:52;;;;;;;5.40;3.10;;;;;;;1.73;100.00;99001.22;6098255;19;20010;-74
2023/11/23 06:05:53;;;;;;;5.30;3.47;;;;;;;1.74;100.00;98991.91;6097718;19;20013;-74
2023/11/23 06:07:53;;;;;;;5.47;3.00;;;;;;;1.78;100.00;99003.84;6100145;19;20259;-74
2023/11/23 06:09:54;;;;;;;7.20;4.95;;;;;;;1.85;100.00;99005.03;6100248;19;20044;-74
2023/11/23 06:11:54;;;;;;;5.13;3.60;;;;;;;1.89;100.00;98991.56;6099848;19;19998;-74
2023/11/23 06:13:54;;;;;;;6.13;3.65;;;;;;;1.87;100.00;98989.16;6095829;19;20011;-74
2023/11/23 06:15:54;;;;;;;5.97;3.53;;;;;;;1.87;100.00;98989.16;6100443;19;20024;-74
2023/11/23 06:17:55;;;;;;;6.50;4.18;;;;;;;1.86;100.00;98984.00;6098846;19;20011;-74
2023/11/23 06:19:55;;;;;;;9.07;3.83;;;;;;;1.82;100.00;98970.19;6100870;19;20050;-74
2023/11/23 06:21:55;;;;;;;8.60;3.83;;;;;;;1.81;100.00;98978.66;6100006;19;20018;-74
2023/11/23 06:23:56;;;;;;;5.57;4.07;;;;;;;1.97;100.00;98977.19;6099540;19;20011;-74
2023/11/23 06:25:57;;;;;;;6.07;3.83;;;;;;;1.90;100.00;98972.19;6099586;19;20347;-74
2023/11/23 06:27:57;;;;;;;7.00;4.05;;;;;;;1.93;100.00;98968.03;6088711;19;20082;-74
2023/11/23 06:29:58;;;;;;;7.10;3.63;;;;;;;1.91;100.00;98953.88;6098754;19;19998;-74
2023/11/23 06:31:58;;;;;;;5.78;4.07;;;;;;;1.91;100.00;98953.88;6099245;19;20518;-74
2023/11/23 06:33:58;;;;;;;6.70;4.10;;;;;;;1.90;100.00;98944.06;6099103;19;20010;-74
2023/11/23 06:35:59;;;;;;;5.65;3.65;;;;;;;1.89;100.00;98942.44;6100412;19;20481;-74
2023/11/23 06:37:59;;;;;;;11.50;4.55;;;;;;;1.93;100.00;98946.19;6098067;19;20013;-74
2023/11/23 06:40:00;;;;;;;8.02;3.95;;;;;;;1.89;100.00;98943.25;6100266;19;20002;-74
2023/11/23 06:42:01;;;;;;;7.45;4.05;;;;;;;1.90;100.00;98947.63;6099214;19;19998;-74
2023/11/23 06:44:01;;;;;;;6.65;4.20;;;;;;;1.92;100.00;98945.38;6098830;19;20357;-74
2023/11/23 06:46:01;;;;;;;7.35;3.80;;;;;;;2.02;100.00;98940.78;6098951;19;19990;-74
2023/11/23 06:48:02;;;;;;;5.78;3.63;;;;;;;2.08;100.00;98945.03;6095733;19;20040;-74
2023/11/23 06:50:02;;;;;;;6.03;4.53;;;;;;;2.06;100.00;98937.13;6098822;19;19995;-75
2023/11/23 06:52:03;;;;;;;6.75;4.25;;;;;;;2.04;100.00;98931.16;6099316;19;20009;-74
2023/11/23 06:54:04;;;;;;;6.25;3.90;;;;;;;2.05;100.00;98929.25;6099134;19;19999;-74
2023/11/23 06:56:04;;;;;;;9.20;4.38;;;;;;;2.08;100.00;98924.00;6098718;19;20033;-74
2023/11/23 06:58:05;;;;;;;9.05;5.40;;;;;;;2.09;100.00;98928.31;6094213;19;20002;-74
2023/11/23 07:00:16;;;;;;;10.82;6.25;;;;;;;2.09;100.00;98928.31;6099245;19;19998;-74
2023/11/23 07:02:16;;;;;;;8.82;5.53;;;;;;;2.14;100.00;98927.38;6100407;19;20013;-74
2023/11/23 07:04:16;;;;;;;11.80;4.97;;;;;;;2.18;100.00;98918.25;6104483;19;20007;-74
2023/11/23 07:06:18;;;;;;;8.23;5.07;;;;;;;2.16;100.00;98917.78;6102477;19;20069;-75
2023/11/23 07:08:18;;;;;;;7.93;4.78;;;;;;;2.13;100.00;98901.19;6101476;19;20011;-74
2023/11/23 07:10:19;;;;;;;13.15;4.47;;;;;;;2.17;100.00;98911.19;6105097;19;20017;-74
2023/11/23 07:12:19;;;;;;;7.75;4.82;;;;;;;2.25;100.00;98906.91;6103128;19;20010;-74
2023/11/23 07:14:21;;;;;;;7.57;4.20;;;;;;;2.30;100.00;98909.50;6103879;19;20003;-74
2023/11/23 07:16:21;;;;;;;7.10;5.18;;;;;;;2.40;100.00;98909.25;6104216;19;20497;-74
2023/11/23 07:18:22;;;;;;;8.68;4.80;;;;;;;2.44;100.00;98907.47;6102898;19;20458;-74
2023/11/23 07:20:22;;;;;;;6.15;4.00;;;;;;;2.48;100.00;98904.91;6104486;19;20377;-75
2023/11/23 07:22:23;;;;;;;7.47;3.95;;;;;;;2.54;100.00;98900.94;6104219;19;20462;-74
2023/11/23 07:24:23;;;;;;;9.15;4.30;;;;;;;2.57;100.00;98908.53;6103614;19;20469;-74
2023/11/23 07:26:24;;;;;;;5.13;4.05;;;;;;;2.59;100.00;98905.47;6099870;19;20026;-74
2023/11/23 07:28:26;;;;;;;8.13;4.40;;;;;;;2.64;100.00;98905.31;6095089;19;20013;-74
2023/11/23 07:30:27;;;;;;;7.57;4.53;;;;;;;2.68;100.00;98903.56;6095871;19;20039;-74
2023/11/23 07:32:27;;;;;;;8.55;4.88;;;;;;;2.70;100.00;98912.25;6095324;19;20010;-74
2023/11/23 07:34:28;;;;;;;5.63;4.05;;;;;;;2.79;100.00;98907.63;6095028;19;20011;-74
2023/11/23 07:36:30;;;;;;;8.18;5.20;;;;;;;2.77;100.00;98899.75;6095106;19;20031;-74
2023/11/23 07:38:32;;;;;;;6.90;4.10;;;;;;;2.84;100.00;98903.94;6094235;19;20415;-75
2023/11/23 07:40:34;;;;;;;6.43;4.30;;;;;;;2.84;100.00;98907.50;6093856;19;20242;-74
2023/11/23 07:42:34;;;;;;;7.13;4.40;;;;;;;2.85;100.00;98897.38;6095093;19;20010;-74
2023/11/23 07:44:34;;;;;;;5.93;4.30;;;;;;;2.95;100.00;98899.78;6094055;19;20315;-74
2023/11/23 07:46:35;;;;;;;6.07;3.95;;;;;;;2.97;100.00;98892.88;6095959;19;20014;-74
2023/11/23 07:48:35;;;;;;;6.50;4.30;;;;;;;3.01;100.00;98876.66;6093294;19;20018;-74
2023/11/23 07:50:39;;;;;;;6.85;4.65;;;;;;;3.02;100.00;98876.34;6094469;19;20010;-74
2023/11/23 07:52:39;;;;;;;7.00;4.70;;;;;;;3.05;100.00;98881.16;6094609;19;20010;-74
2023/11/23 07:54:39;;;;;;;8.60;4.85;;;;;;;3.09;100.00;98876.69;6094144;19;20067;-74
2023/11/23 07:56:41;;;;;;;6.90;4.75;;;;;;;3.08;100.00;98874.28;6094804;19;20018;-74
2023/11/23 07:58:43;;;;;;;6.55;4.20;;;;;;;3.12;100.00;98872.50;6094143;19;20495;-74
2023/11/23 08:00:43;;;;;;;8.38;4.68;;;;;;;3.14;100.00;98867.50;6094515;19;20357;-75
2023/11/23 08:02:44;;;;;;;6.43;4.80;;;;;;;3.18;100.00;98879.44;6095026;19;20011;-75
2023/11/23 08:04:44;;;;;;;6.68;4.30;;;;;;;3.25;100.00;98873.50;6094351;19;20382;-75
2023/11/23 08:06:45;;;;;;;7.05;5.18;;;;;;;3.25;100.00;98885.22;6095121;19;20309;-75
2023/11/23 08:08:46;;;;;;;6.88;4.50;;;;;;;3.31;100.00;98885.88;6094798;19;20820;-75
2023/11/23 08:10:47;;;;;;;7.78;4.43;;;;;;;3.34;100.00;98879.78;6095532;19;20413;-75
2023/11/23 08:12:47;;;;;;;9.32;5.40;;;;;;;3.42;100.00;98870.78;6094378;19;20014;-74
2023/11/23 08:14:47;;;;;;;7.97;4.97;;;;;;;3.44;100.00;98870.44;6092741;19;20010;-74
2023/11/23 08:16:48;;;;;;;8.75;5.15;;;;;;;3.50;100.00;98871.91;6094164;19;20027;-75
2023/11/23 08:18:48;;;;;;;8.00;5.07;;;;;;;3.57;100.00;98856.63;6095011;19;20226;-74
2023/11/23 08:20:48;;;;;;;11.05;5.85;;;;;;;3.57;100.00;98859.34;6095145;19;20126;-74
2023/11/23 08:22:49;;;;;;;12.82;5.95;;;;;;;3.63;100.00;98866.25;6095273;19;20010;-75
2023/11/23 08:24:49;;;;;;;8.20;4.93;;;;;;;3.67;100.00;98861.75;6093064;19;20006;-74
2023/11/23 08:26:50;;;;;;;7.18;4.80;;;;;;;3.69;100.00;98872.38;6090444;19;20014;-74
2023/11/23 08:28:51;;;;;;;7.18;5.18;;;;;;;3.70;100.00;98854.81;6103135;19;20017;-75
2023/11/23 08:30:51;;;;;;;7.13;4.65;;;;;;;3.67;100.00;98864.50;6104072;19;20010;-75
2023/11/23 08:32:51;;;;;;;9.85;5.18;;;;;;;3.59;100.00;98857.09;6102675;19;20086;-75
2023/11/23 08:34:52;;;;;;;7.15;4.93;;;;;;;3.59;100.00;98876.25;6103388;19;20007;-75
2023/11/23 08:36:54;;;;;;;7.55;4.78;;;;;;;3.59;100.00;98869.97;6101360;19;20006;-75
2023/11/23 08:38:54;;;;;;;7.38;5.05;;;;;;;3.57;100.00;98864.03;6102408;19;20070;-75
2023/11/23 08:40:55;;;;;;;6.38;4.68;;;;;;;3.64;100.00;98867.03;6102956;19;20011;-75
2023/11/23 08:42:55;;;;;;;8.60;5.68;;;;;;;3.67;100.00;98866.41;6103601;19;20016;-75
2023/11/23 08:44:55;;;;;;;7.35;5.18;;;;;;;3.66;100.00;98871.09;6102705;19;20078;-75
2023/11/23 08:46:57;;;;;;;9.60;4.72;;;;;;;3.65;100.00;98866.75;6101726;19;20006;-74
2023/11/23 08:48:57;;;;;;;9.05;5.13;;;;;;;3.65;100.00;98861.28;6101093;19;20007;-75
2023/11/23 08:50:57;;;;;;;8.15;5.03;;;;;;;3.67;100.00;98855.47;6103024;19;20013;-75
2023/11/23 08:52:59;;;;;;;7.10;4.80;;;;;;;3.67;100.00;98847.28;6102127;19;20033;-75
2023/11/23 08:54:59;;;;;;;9.25;5.18;;;;;;;3.66;100.00;98834.72;6103572;19;20070;-74
2023/11/23 08:57:01;;;;;;;7.60;5.05;;;;;;;3.70;100.00;98845.81;6100959;19;20487;-74
2023/11/23 08:59:02;;;;;;;7.10;4.73;;;;;;;3.79;100.00;98836.44;6101867;19;20540;-74
2023/11/23 09:01:02;;;;;;;7.10;4.85;;;;;;;3.81;100.00;98828.75;6102697;19;20014;-75
2023/11/23 09:03:04;;;;;;;7.70;4.90;;;;;;;3.87;100.00;98821.16;6102575;19;20078;-75
2023/11/23 09:05:11;;;;;;;8.98;4.65;;;;;;;3.95;100.00;98818.38;6101798;19;20045;-75
2023/11/23 09:07:11;;;;;;;6.57;4.82;;;;;;;3.97;100.00;98820.00;6100759;19;20490;-75
2023/11/23 09:09:12;;;;;;;8.55;5.90;;;;;;;4.01;100.00;98824.50;6101794;19;20031;-75
2023/11/23 09:11:13;;;;;;;8.93;5.68;;;;;;;4.01;100.00;98807.28;6102253;19;20385;-74
2023/11/23 09:13:14;;;;;;;8.13;5.32;;;;;;;4.15;100.00;98814.16;6101486;19;20007;-75
2023/11/23 09:15:15;;;;;;;8.45;5.45;;;;;;;4.27;100.00;98801.69;6100176;19;20433;-74
2023/11/23 09:17:16;;;;;;;8.27;5.32;;;;;;;4.34;100.00;98802.81;6100087;19;20007;-75
2023/11/23 09:19:17;;;;;;;7.50;5.15;;;;;;;4.41;100.00;98808.56;6101622;19;20323;-75
2023/11/23 09:21:17;;;;;;;8.55;6.15;;;;;;;4.43;100.00;98800.03;6100992;19;20010;-74
2023/11/23 09:23:17;;;;;;;10.35;6.00;;;;;;;4.50;100.00;98798.38;6101162;19;20023;-75
2023/11/23 09:25:18;;;;;;;9.68;6.00;;;;;;;4.63;100.00;98807.47;6100446;19;20014;-75
2023/11/23 09:27:18;;;;;;;10.55;6.28;;;;;;;4.65;100.00;98788.78;6101021;19;20538;-75